Ship Status Report: callsign ECES

sailwx.info

Track history (hours):
 
Tides and Currents Weather Stations Pressure Air Temp Water Temp Dewpoint Dewpoint Depression Visibility Wind Speed Wind Dir Waves Ship Positions

Callsign ECES (name unknown)

Last reported at 2016-Jun-28 22:32 UTC. Time now 2016-Jul-02 07:38 UTC.
Position N 43°37' W 001°48'.

Date/timePositionNaut miles runAvg speedWind from/ knotsBaromVisibWave heightAir tempDewpointWater temp
2016-Jun-28 22:32N 43°37' W 001°48'16 0.8
2016-Jun-28 01:22N 43°51' W 001°37'  
2016-Jun-24 07:20N 43°25' W 002°04'25 0.7
2016-Jun-22 20:28N 43°45' W 001°43'3 1.1
2016-Jun-22 17:33N 43°42' W 001°45'0 0.0
2016-Jun-22 16:33N 43°42' W 001°45'3 0.4
2016-Jun-22 10:14N 43°45' W 001°45'9 5.6
2016-Jun-22 08:33N 43°53' W 001°39'8 8.2
2016-Jun-22 07:33N 44°01' W 001°35'6 6.0
2016-Jun-22 06:33N 44°07' W 001°37'11 5.4
2016-Jun-22 04:33N 44°16' W 001°45'11 5.5
2016-Jun-22 02:33N 44°22' W 001°58'8 6.6
2016-Jun-22 01:25N 44°22' W 002°09'1110.8
2016-Jun-22 00:22N 44°20' W 002°24'176 5.3
2016-Jun-20 15:18N 43°47' W 006°25'8 9.8
2016-Jun-20 14:30N 43°46' W 006°14'9 9.8
2016-Jun-20 13:33N 43°46' W 006°02'10 9.5
2016-Jun-20 12:28N 43°45' W 005°47'8 9.2
2016-Jun-20 11:33N 43°45' W 005°36'7 6.7
2016-Jun-20 10:33N 43°44' W 005°27'8 8.4
2016-Jun-20 09:33N 43°43' W 005°15'10 9.7
2016-Jun-20 08:33N 43°42' W 005°02'  
Track history (hours):
 
Tides and Currents Weather Stations Pressure Air Temp Water Temp Dewpoint Dewpoint Depression Visibility Wind Speed Wind Dir Waves Ship Positions

Callsign ECES (name unknown)

Last reported at 2016-Jun-28 22:32 UTC. Time now 2016-Jul-02 07:38 UTC.
Position N 43°37' W 001°48'.

Date/timePositionNaut miles runAvg speedWind from/ knotsBaromVisibWave heightAir tempDewpointWater temp
2016-Jun-28 22:32N 43°37' W 001°48'16 0.8
2016-Jun-28 01:22N 43°51' W 001°37'  
2016-Jun-24 07:20N 43°25' W 002°04'25 0.7
2016-Jun-22 20:28N 43°45' W 001°43'3 1.1
2016-Jun-22 17:33N 43°42' W 001°45'0 0.0
2016-Jun-22 16:33N 43°42' W 001°45'3 0.4
2016-Jun-22 10:14N 43°45' W 001°45'9 5.6
2016-Jun-22 08:33N 43°53' W 001°39'8 8.2
2016-Jun-22 07:33N 44°01' W 001°35'6 6.0
2016-Jun-22 06:33N 44°07' W 001°37'11 5.4
2016-Jun-22 04:33N 44°16' W 001°45'11 5.5
2016-Jun-22 02:33N 44°22' W 001°58'8 6.6
2016-Jun-22 01:25N 44°22' W 002°09'1110.8
2016-Jun-22 00:22N 44°20' W 002°24'176 5.3
2016-Jun-20 15:18N 43°47' W 006°25'8 9.8
2016-Jun-20 14:30N 43°46' W 006°14'9 9.8
2016-Jun-20 13:33N 43°46' W 006°02'10 9.5
2016-Jun-20 12:28N 43°45' W 005°47'8 9.2
2016-Jun-20 11:33N 43°45' W 005°36'7 6.7
2016-Jun-20 10:33N 43°44' W 005°27'8 8.4
2016-Jun-20 09:33N 43°43' W 005°15'10 9.7
2016-Jun-20 08:33N 43°42' W 005°02'  

Dump ship's entire track history